createdAt,value
2023-02-03T00:00:06.708Z,15.80
2023-02-03T00:00:16.714Z,15.80
2023-02-03T00:00:27.049Z,15.80
2023-02-03T00:00:36.706Z,15.80
2023-02-03T00:00:46.709Z,15.80
2023-02-03T00:00:56.713Z,15.80
2023-02-03T00:01:06.712Z,15.80
2023-02-03T00:01:16.731Z,15.80
2023-02-03T00:01:26.713Z,15.80
2023-02-03T00:01:36.753Z,15.80
2023-02-03T00:01:46.733Z,15.80
2023-02-03T00:01:56.745Z,15.80
2023-02-03T00:02:06.819Z,15.78
2023-02-03T00:02:16.758Z,15.78
2023-02-03T00:02:26.738Z,15.80
2023-02-03T00:02:36.727Z,15.80
2023-02-03T00:02:46.790Z,15.80
2023-02-03T00:02:56.728Z,15.78
2023-02-03T00:03:06.747Z,15.80
2023-02-03T00:03:16.822Z,15.80
2023-02-03T00:03:26.804Z,15.78
2023-02-03T00:03:36.728Z,15.77
2023-02-03T00:03:46.725Z,15.80
2023-02-03T00:03:56.711Z,15.78
2023-02-03T00:04:06.738Z,15.78
2023-02-03T00:04:16.735Z,15.78
2023-02-03T00:04:26.731Z,15.78
2023-02-03T00:04:36.735Z,15.78
2023-02-03T00:04:46.732Z,15.78
2023-02-03T00:04:56.733Z,15.78
2023-02-03T00:05:06.755Z,15.80
2023-02-03T00:05:16.735Z,15.78
2023-02-03T00:05:26.739Z,15.78
2023-02-03T00:05:36.740Z,15.78
2023-02-03T00:05:46.735Z,15.78
2023-02-03T00:05:56.735Z,15.78
2023-02-03T00:06:06.737Z,15.80
2023-02-03T00:06:16.735Z,15.80
2023-02-03T00:06:26.738Z,15.78
2023-02-03T00:06:36.735Z,15.80
2023-02-03T00:06:46.737Z,15.78
2023-02-03T00:06:56.747Z,15.78
2023-02-03T00:07:06.750Z,15.78
2023-02-03T00:07:16.745Z,15.78
2023-02-03T00:07:26.756Z,15.77
2023-02-03T00:07:36.752Z,15.80
2023-02-03T00:07:46.761Z,15.78
2023-02-03T00:07:56.746Z,15.77
2023-02-03T00:08:06.753Z,15.77
2023-02-03T00:08:16.746Z,15.78
2023-02-03T00:08:26.762Z,15.78
2023-02-03T00:08:36.752Z,15.78
2023-02-03T00:08:46.756Z,15.78
2023-02-03T00:08:56.747Z,15.78
2023-02-03T00:09:06.745Z,15.80
2023-02-03T00:09:16.750Z,15.78
2023-02-03T00:09:26.750Z,15.78
2023-02-03T00:09:36.750Z,15.78
2023-02-03T00:09:46.756Z,15.78
2023-02-03T00:09:56.755Z,15.77
2023-02-03T00:10:06.761Z,15.77
2023-02-03T00:10:16.756Z,15.78
2023-02-03T00:10:27.073Z,15.78
2023-02-03T00:10:36.756Z,15.78
2023-02-03T00:10:46.756Z,15.77
2023-02-03T00:10:56.756Z,15.78
2023-02-03T00:11:06.756Z,15.78
2023-02-03T00:11:16.759Z,15.78
2023-02-03T00:11:26.760Z,15.77
2023-02-03T00:11:36.763Z,15.78
2023-02-03T00:11:46.742Z,15.77
2023-02-03T00:11:56.759Z,15.77
2023-02-03T00:12:06.759Z,15.78
2023-02-03T00:12:16.764Z,15.78
2023-02-03T00:12:26.765Z,15.78
2023-02-03T00:12:36.767Z,15.77
2023-02-03T00:12:46.763Z,15.78
2023-02-03T00:12:56.763Z,15.77
2023-02-03T00:13:06.765Z,15.78
2023-02-03T00:13:16.763Z,15.77
2023-02-03T00:13:26.789Z,15.77
2023-02-03T00:13:36.765Z,15.77
2023-02-03T00:13:46.773Z,15.77
2023-02-03T00:13:56.767Z,15.77
2023-02-03T00:14:06.769Z,15.78
2023-02-03T00:14:16.767Z,15.77
2023-02-03T00:14:26.767Z,15.77
2023-02-03T00:14:36.768Z,15.78
2023-02-03T00:14:46.779Z,15.78
2023-02-03T00:14:56.769Z,15.77
2023-02-03T00:15:06.791Z,15.77
2023-02-03T00:15:16.778Z,15.77
2023-02-03T00:15:26.778Z,15.78
2023-02-03T00:15:36.776Z,15.80
2023-02-03T00:15:46.773Z,15.78
2023-02-03T00:15:56.924Z,15.78
2023-02-03T00:16:06.833Z,15.78
2023-02-03T00:16:16.833Z,15.78
2023-02-03T00:16:26.868Z,15.78
2023-02-03T00:16:36.875Z,15.78
2023-02-03T00:16:46.802Z,15.77
2023-02-03T00:16:56.783Z,15.78
2023-02-03T00:17:06.779Z,15.77
2023-02-03T00:17:16.783Z,15.78
2023-02-03T00:17:26.783Z,15.77
2023-02-03T00:17:36.789Z,15.78
2023-02-03T00:17:46.783Z,15.78
2023-02-03T00:17:56.785Z,15.78
2023-02-03T00:18:06.783Z,15.80
2023-02-03T00:18:16.785Z,15.78
2023-02-03T00:18:26.786Z,15.78
2023-02-03T00:18:36.787Z,15.78
2023-02-03T00:18:46.796Z,15.77
2023-02-03T00:18:56.799Z,15.80
2023-02-03T00:19:06.824Z,15.78
2023-02-03T00:19:17.708Z,15.78
2023-02-03T00:19:26.789Z,15.78
2023-02-03T00:19:36.798Z,15.80
2023-02-03T00:19:46.790Z,15.80
2023-02-03T00:19:56.796Z,15.78
2023-02-03T00:20:06.792Z,15.78
2023-02-03T00:20:16.792Z,15.77
2023-02-03T00:20:27.126Z,15.78
2023-02-03T00:20:36.806Z,15.78
2023-02-03T00:20:46.807Z,15.78
2023-02-03T00:20:56.798Z,15.78
2023-02-03T00:21:06.801Z,15.77
2023-02-03T00:21:16.801Z,15.78
2023-02-03T00:21:26.807Z,15.78
2023-02-03T00:21:36.807Z,15.78
2023-02-03T00:21:46.803Z,15.78
2023-02-03T00:21:56.811Z,15.78
2023-02-03T00:22:06.800Z,15.78
2023-02-03T00:22:16.808Z,15.78
2023-02-03T00:22:27.441Z,15.77
2023-02-03T00:22:36.812Z,15.77
2023-02-03T00:22:46.805Z,15.78
2023-02-03T00:22:56.804Z,15.77
2023-02-03T00:23:06.788Z,15.78
2023-02-03T00:23:16.808Z,15.77
2023-02-03T00:23:26.809Z,15.77
2023-02-03T00:23:36.810Z,15.77
2023-02-03T00:23:46.817Z,15.77
2023-02-03T00:23:56.816Z,15.78
2023-02-03T00:24:06.815Z,15.80
2023-02-03T00:24:16.822Z,15.78
2023-02-03T00:24:26.816Z,15.77
2023-02-03T00:24:36.816Z,15.77
2023-02-03T00:24:46.823Z,15.78
2023-02-03T00:24:56.825Z,15.78
2023-02-03T00:25:06.824Z,15.78
2023-02-03T00:25:16.820Z,15.78
2023-02-03T00:25:26.821Z,15.78
2023-02-03T00:25:36.839Z,15.78
2023-02-03T00:25:46.821Z,15.78
2023-02-03T00:25:56.821Z,15.77
2023-02-03T00:26:06.823Z,15.78
2023-02-03T00:26:16.824Z,15.78
2023-02-03T00:26:26.826Z,15.77
2023-02-03T00:26:36.826Z,15.77
2023-02-03T00:26:46.829Z,15.78
2023-02-03T00:26:56.835Z,15.78
2023-02-03T00:27:06.829Z,15.78
2023-02-03T00:27:16.830Z,15.78
2023-02-03T00:27:26.843Z,15.78
2023-02-03T00:27:36.837Z,15.77
2023-02-03T00:27:46.860Z,15.77
2023-02-03T00:27:56.890Z,15.77
2023-02-03T00:28:06.895Z,15.78
2023-02-03T00:28:16.845Z,15.78
2023-02-03T00:28:26.832Z,15.78
2023-02-03T00:28:36.834Z,15.78
2023-02-03T00:28:46.836Z,15.77
2023-02-03T00:28:56.833Z,15.78
2023-02-03T00:29:06.835Z,15.77
2023-02-03T00:29:16.848Z,15.77
2023-02-03T00:29:26.838Z,15.77
2023-02-03T00:29:36.836Z,15.78
2023-02-03T00:29:46.844Z,15.77
2023-02-03T00:29:56.840Z,15.80
2023-02-03T00:30:06.843Z,15.78
2023-02-03T00:30:16.843Z,15.78
2023-02-03T00:30:27.152Z,15.78
2023-02-03T00:30:36.845Z,15.78
2023-02-03T00:30:46.845Z,15.80
2023-02-03T00:30:56.844Z,15.80
2023-02-03T00:31:06.912Z,15.78
2023-02-03T00:31:16.953Z,15.80
2023-02-03T00:31:26.997Z,15.78
2023-02-03T00:31:36.995Z,15.80
2023-02-03T00:31:46.938Z,15.78
2023-02-03T00:31:56.964Z,15.78
2023-02-03T00:32:07.026Z,15.80
2023-02-03T00:32:16.965Z,15.80
2023-02-03T00:32:27.071Z,15.80
2023-02-03T00:32:36.863Z,15.80
2023-02-03T00:32:46.851Z,15.78
2023-02-03T00:32:56.855Z,15.78
2023-02-03T00:33:06.853Z,15.78
2023-02-03T00:33:16.859Z,15.80
2023-02-03T00:33:26.859Z,15.80
2023-02-03T00:33:36.856Z,15.78
2023-02-03T00:33:46.857Z,15.78
2023-02-03T00:33:57.030Z,15.78
2023-02-03T00:34:06.859Z,15.78
2023-02-03T00:34:16.863Z,15.78
2023-02-03T00:34:26.868Z,15.78
2023-02-03T00:34:36.867Z,15.78
2023-02-03T00:34:46.864Z,15.78
2023-02-03T00:34:56.865Z,15.78
2023-02-03T00:35:06.867Z,15.80
2023-02-03T00:35:16.867Z,15.77
2023-02-03T00:35:26.866Z,15.78
2023-02-03T00:35:36.876Z,15.78
2023-02-03T00:35:46.868Z,15.78
2023-02-03T00:35:56.872Z,15.80
2023-02-03T00:36:06.878Z,15.78
2023-02-03T00:36:16.869Z,15.78
2023-02-03T00:36:26.890Z,15.77
2023-02-03T00:36:36.870Z,15.77
2023-02-03T00:36:46.869Z,15.78
2023-02-03T00:36:56.869Z,15.78
2023-02-03T00:37:06.874Z,15.78
2023-02-03T00:37:16.873Z,15.78
2023-02-03T00:37:26.876Z,15.78
2023-02-03T00:37:36.890Z,15.78
2023-02-03T00:37:46.879Z,15.80
2023-02-03T00:37:56.882Z,15.80
2023-02-03T00:38:06.880Z,15.78
2023-02-03T00:38:16.880Z,15.78
2023-02-03T00:38:26.882Z,15.78
2023-02-03T00:38:36.883Z,15.80
2023-02-03T00:38:46.887Z,15.78
2023-02-03T00:38:56.883Z,15.78
2023-02-03T00:39:06.889Z,15.78
2023-02-03T00:39:16.892Z,15.78
2023-02-03T00:39:26.884Z,15.78
2023-02-03T00:39:36.897Z,15.78
2023-02-03T00:39:46.896Z,15.80
2023-02-03T00:39:56.905Z,15.78
2023-02-03T00:40:06.887Z,15.78
2023-02-03T00:40:16.890Z,15.80
2023-02-03T00:40:27.333Z,15.81
2023-02-03T00:40:36.893Z,15.80
2023-02-03T00:40:46.894Z,15.81
2023-02-03T00:40:56.892Z,15.81
2023-02-03T00:41:06.898Z,15.78
2023-02-03T00:41:16.892Z,15.80
2023-02-03T00:41:26.894Z,15.80
2023-02-03T00:41:36.898Z,15.80
2023-02-03T00:41:46.892Z,15.80
2023-02-03T00:41:56.892Z,15.78
2023-02-03T00:42:06.891Z,15.80
2023-02-03T00:42:16.894Z,15.80
2023-02-03T00:42:26.893Z,15.78
2023-02-03T00:42:36.912Z,15.78
2023-02-03T00:42:46.897Z,15.80
2023-02-03T00:42:56.901Z,15.78
2023-02-03T00:43:06.900Z,15.80
2023-02-03T00:43:16.901Z,15.80
2023-02-03T00:43:26.898Z,15.80
2023-02-03T00:43:36.904Z,15.80
2023-02-03T00:43:46.903Z,15.81
2023-02-03T00:43:56.902Z,15.81
2023-02-03T00:44:06.908Z,15.81
2023-02-03T00:44:16.905Z,15.81
2023-02-03T00:44:26.904Z,15.81
2023-02-03T00:44:36.903Z,15.80
2023-02-03T00:44:46.907Z,15.81
2023-02-03T00:44:56.907Z,15.81
2023-02-03T00:45:06.906Z,15.80
2023-02-03T00:45:16.906Z,15.81
2023-02-03T00:45:26.908Z,15.80
2023-02-03T00:45:36.925Z,15.81
2023-02-03T00:45:46.926Z,15.78
2023-02-03T00:45:56.911Z,15.80
2023-02-03T00:46:06.963Z,15.81
2023-02-03T00:46:17.006Z,15.81
2023-02-03T00:46:26.918Z,15.81
2023-02-03T00:46:36.921Z,15.80
2023-02-03T00:46:46.921Z,15.80
2023-02-03T00:46:56.918Z,15.81
2023-02-03T00:47:06.918Z,15.80
2023-02-03T00:47:16.915Z,15.81
2023-02-03T00:47:26.919Z,15.81
2023-02-03T00:47:36.922Z,15.81
2023-02-03T00:47:46.920Z,15.84
2023-02-03T00:47:56.926Z,15.81
2023-02-03T00:48:06.920Z,15.81
2023-02-03T00:48:16.930Z,15.84
2023-02-03T00:48:26.979Z,15.81
2023-02-03T00:48:36.933Z,15.81
2023-02-03T00:48:46.923Z,15.84
2023-02-03T00:48:56.927Z,15.81
2023-02-03T00:49:06.928Z,15.84
2023-02-03T00:49:16.927Z,15.81
2023-02-03T00:49:26.925Z,15.80
2023-02-03T00:49:36.938Z,15.81
2023-02-03T00:49:46.936Z,15.81
2023-02-03T00:49:56.931Z,15.81
2023-02-03T00:50:06.934Z,15.84
2023-02-03T00:50:16.932Z,15.81
2023-02-03T00:50:27.199Z,15.81
2023-02-03T00:50:36.959Z,15.81
2023-02-03T00:50:46.933Z,15.81
2023-02-03T00:50:56.937Z,15.80
2023-02-03T00:51:06.936Z,15.80
2023-02-03T00:51:16.936Z,15.81
2023-02-03T00:51:26.945Z,15.80
2023-02-03T00:51:36.943Z,15.81
2023-02-03T00:51:46.922Z,15.80
2023-02-03T00:51:56.938Z,15.81
2023-02-03T00:52:06.942Z,15.80
2023-02-03T00:52:16.939Z,15.80
2023-02-03T00:52:26.939Z,15.80
2023-02-03T00:52:36.971Z,15.78
2023-02-03T00:52:46.942Z,15.81
2023-02-03T00:52:56.943Z,15.81
2023-02-03T00:53:06.946Z,15.80
2023-02-03T00:53:16.947Z,15.81
2023-02-03T00:53:26.945Z,15.81
2023-02-03T00:53:36.954Z,15.80
2023-02-03T00:53:46.949Z,15.81
2023-02-03T00:53:56.951Z,15.81
2023-02-03T00:54:06.951Z,15.80
2023-02-03T00:54:16.957Z,15.80
2023-02-03T00:54:26.954Z,15.80
2023-02-03T00:54:36.954Z,15.81
2023-02-03T00:54:46.957Z,15.80
2023-02-03T00:54:56.960Z,15.80
2023-02-03T00:55:06.958Z,15.81
2023-02-03T00:55:16.960Z,15.81
2023-02-03T00:55:26.971Z,15.81
2023-02-03T00:55:36.947Z,15.80
2023-02-03T00:55:46.962Z,15.81
2023-02-03T00:55:56.961Z,15.80
2023-02-03T00:56:06.962Z,15.80
2023-02-03T00:56:16.969Z,15.78
2023-02-03T00:56:26.966Z,15.80
2023-02-03T00:56:36.962Z,15.81
2023-02-03T00:56:46.964Z,15.81
2023-02-03T00:56:56.963Z,15.80
2023-02-03T00:57:06.978Z,15.80
2023-02-03T00:57:16.971Z,15.80
2023-02-03T00:57:26.967Z,15.80
2023-02-03T00:57:36.978Z,15.81
2023-02-03T00:57:46.966Z,15.81
2023-02-03T00:57:56.967Z,15.80
2023-02-03T00:58:06.967Z,15.80
2023-02-03T00:58:16.971Z,15.80
2023-02-03T00:58:26.975Z,15.81
2023-02-03T00:58:36.977Z,15.81
2023-02-03T00:58:46.972Z,15.81
2023-02-03T00:58:56.979Z,15.81
2023-02-03T00:59:06.984Z,15.81
2023-02-03T00:59:16.981Z,15.81
2023-02-03T00:59:26.973Z,15.80
2023-02-03T00:59:36.974Z,15.80
2023-02-03T00:59:46.979Z,15.84
2023-02-03T00:59:56.960Z,15.81
2023-02-03T01:00:06.983Z,15.80
2023-02-03T01:00:16.979Z,15.80
2023-02-03T01:00:27.275Z,15.84
2023-02-03T01:00:36.997Z,15.81
2023-02-03T01:00:47.011Z,15.80
2023-02-03T01:00:57.143Z,15.81
2023-02-03T01:01:07.014Z,15.80
2023-02-03T01:01:17.021Z,15.81
2023-02-03T01:01:27.004Z,15.80
2023-02-03T01:01:37.087Z,15.80
2023-02-03T01:01:46.984Z,15.80
2023-02-03T01:01:57.065Z,15.80
2023-02-03T01:02:07.068Z,15.80
2023-02-03T01:02:17.092Z,15.81
2023-02-03T01:02:27.086Z,15.81
2023-02-03T01:02:37.010Z,15.81
2023-02-03T01:02:46.992Z,15.78
2023-02-03T01:02:56.991Z,15.80
2023-02-03T01:03:06.989Z,15.80
2023-02-03T01:03:16.991Z,15.80
2023-02-03T01:03:26.990Z,15.81
2023-02-03T01:03:36.992Z,15.80
2023-02-03T01:03:46.994Z,15.81
2023-02-03T01:03:57.012Z,15.81
2023-02-03T01:04:07.000Z,15.80
2023-02-03T01:04:16.999Z,15.81
2023-02-03T01:04:27.004Z,15.80
2023-02-03T01:04:37.006Z,15.81
2023-02-03T01:04:47.004Z,15.80
2023-02-03T01:04:57.032Z,15.80
2023-02-03T01:05:07.016Z,15.81
2023-02-03T01:05:17.010Z,15.81
2023-02-03T01:05:27.014Z,15.81
2023-02-03T01:05:37.006Z,15.81
2023-02-03T01:05:47.002Z,15.80
2023-02-03T01:05:57.005Z,15.84
2023-02-03T01:06:07.005Z,15.81
2023-02-03T01:06:17.004Z,15.81
2023-02-03T01:06:27.033Z,15.84
2023-02-03T01:06:37.009Z,15.81
2023-02-03T01:06:47.013Z,15.81
2023-02-03T01:06:57.009Z,15.81
2023-02-03T01:07:07.016Z,15.81
2023-02-03T01:07:17.011Z,15.80
2023-02-03T01:07:27.009Z,15.81
2023-02-03T01:07:37.021Z,15.81
2023-02-03T01:07:47.012Z,15.81
2023-02-03T01:07:57.011Z,15.84
2023-02-03T01:08:07.050Z,15.81
2023-02-03T01:08:17.014Z,15.80
2023-02-03T01:08:27.019Z,15.81
2023-02-03T01:08:37.016Z,15.84
2023-02-03T01:08:47.022Z,15.81
2023-02-03T01:08:57.012Z,15.81
2023-02-03T01:09:07.023Z,15.84
2023-02-03T01:09:17.001Z,15.81
2023-02-03T01:09:27.020Z,15.81
2023-02-03T01:09:37.018Z,15.81
2023-02-03T01:09:47.021Z,15.81
2023-02-03T01:09:57.017Z,15.81
2023-02-03T01:10:07.051Z,15.80
2023-02-03T01:10:17.022Z,15.80
2023-02-03T01:10:27.452Z,15.81
2023-02-03T01:10:37.021Z,15.81
2023-02-03T01:10:47.030Z,15.80
2023-02-03T01:10:57.022Z,15.81
2023-02-03T01:11:07.030Z,15.81
2023-02-03T01:11:17.026Z,15.81
2023-02-03T01:11:27.024Z,15.81
2023-02-03T01:11:37.024Z,15.81
2023-02-03T01:11:47.026Z,15.84
2023-02-03T01:11:57.024Z,15.80
2023-02-03T01:12:07.026Z,15.81
2023-02-03T01:12:17.032Z,15.84
2023-02-03T01:12:27.030Z,15.81
2023-02-03T01:12:37.047Z,15.81
2023-02-03T01:12:47.030Z,15.81
2023-02-03T01:12:57.032Z,15.81
2023-02-03T01:13:07.038Z,15.81
2023-02-03T01:13:17.032Z,15.81
2023-02-03T01:13:27.032Z,15.81
2023-02-03T01:13:37.045Z,15.81
2023-02-03T01:13:47.033Z,15.81
2023-02-03T01:13:57.035Z,15.84
2023-02-03T01:14:07.045Z,15.81
2023-02-03T01:14:17.033Z,15.81
2023-02-03T01:14:27.039Z,15.81
2023-02-03T01:14:37.038Z,15.84
2023-02-03T01:14:47.037Z,15.81
2023-02-03T01:14:57.037Z,15.81
2023-02-03T01:15:07.037Z,15.84
2023-02-03T01:15:17.038Z,15.81
2023-02-03T01:15:27.050Z,15.81
2023-02-03T01:15:37.061Z,15.81
2023-02-03T01:15:47.050Z,15.84
2023-02-03T01:15:57.046Z,15.81
2023-02-03T01:16:07.047Z,15.81
2023-02-03T01:16:17.053Z,15.81
2023-02-03T01:16:28.582Z,15.80
2023-02-03T01:16:37.110Z,15.81
2023-02-03T01:16:47.100Z,15.81
2023-02-03T01:16:57.093Z,15.81
2023-02-03T01:17:07.043Z,15.81
2023-02-03T01:17:17.047Z,15.84
2023-02-03T01:17:27.058Z,15.81
2023-02-03T01:17:37.059Z,15.81
2023-02-03T01:17:47.046Z,15.81
2023-02-03T01:17:57.050Z,15.81
2023-02-03T01:18:07.049Z,15.81
2023-02-03T01:18:17.053Z,15.81
2023-02-03T01:18:27.055Z,15.81
2023-02-03T01:18:37.056Z,15.84
2023-02-03T01:18:47.053Z,15.85
2023-02-03T01:18:57.058Z,15.84
2023-02-03T01:19:07.053Z,15.85
2023-02-03T01:19:17.052Z,15.81
2023-02-03T01:19:27.053Z,15.84
2023-02-03T01:19:37.056Z,15.84
2023-02-03T01:19:47.059Z,15.84
2023-02-03T01:19:57.067Z,15.84
2023-02-03T01:20:07.060Z,15.84
2023-02-03T01:20:17.088Z,15.84
2023-02-03T01:20:27.305Z,15.84
2023-02-03T01:20:37.062Z,15.85
2023-02-03T01:20:47.077Z,15.84
2023-02-03T01:20:57.064Z,15.85
2023-02-03T01:21:07.064Z,15.84
2023-02-03T01:21:17.063Z,15.85
2023-02-03T01:21:27.075Z,15.84
2023-02-03T01:21:37.082Z,15.85
2023-02-03T01:21:47.067Z,15.84
2023-02-03T01:21:57.067Z,15.84
2023-02-03T01:22:07.066Z,15.84
2023-02-03T01:22:17.068Z,15.84
2023-02-03T01:22:27.067Z,15.84
2023-02-03T01:22:37.073Z,15.85
2023-02-03T01:22:47.072Z,15.84
2023-02-03T01:22:57.071Z,15.84
2023-02-03T01:23:07.075Z,15.85
2023-02-03T01:23:17.069Z,15.81
2023-02-03T01:23:27.071Z,15.81
2023-02-03T01:23:37.084Z,15.84
2023-02-03T01:23:47.073Z,15.84
2023-02-03T01:23:57.076Z,15.81
2023-02-03T01:24:07.073Z,15.84
2023-02-03T01:24:17.085Z,15.84
2023-02-03T01:24:27.073Z,15.81
2023-02-03T01:24:37.078Z,15.84
2023-02-03T01:24:47.075Z,15.84
2023-02-03T01:24:57.078Z,15.84
2023-02-03T01:25:07.081Z,15.84
2023-02-03T01:25:17.102Z,15.81
2023-02-03T01:25:27.081Z,15.81
2023-02-03T01:25:37.082Z,15.81
2023-02-03T01:25:47.082Z,15.81
2023-02-03T01:25:57.083Z,15.81
2023-02-03T01:26:07.083Z,15.85
2023-02-03T01:26:17.108Z,15.81
2023-02-03T01:26:27.082Z,15.81
2023-02-03T01:26:37.083Z,15.81
2023-02-03T01:26:47.084Z,15.84
2023-02-03T01:26:57.083Z,15.84
2023-02-03T01:27:07.085Z,15.84
2023-02-03T01:27:17.089Z,15.84
2023-02-03T01:27:27.090Z,15.81
2023-02-03T01:27:37.150Z,15.85
2023-02-03T01:27:47.160Z,15.81
2023-02-03T01:27:57.142Z,15.84
2023-02-03T01:28:07.098Z,15.81
2023-02-03T01:28:17.139Z,15.84
2023-02-03T01:28:27.101Z,15.85
2023-02-03T01:28:37.099Z,15.84
2023-02-03T01:28:47.097Z,15.85
2023-02-03T01:28:57.097Z,15.84
2023-02-03T01:29:07.098Z,15.85
2023-02-03T01:29:17.101Z,15.84
2023-02-03T01:29:27.099Z,15.84
2023-02-03T01:29:37.098Z,15.84
2023-02-03T01:29:47.099Z,15.84
2023-02-03T01:29:57.111Z,15.85
2023-02-03T01:30:07.103Z,15.85
2023-02-03T01:30:17.113Z,15.84
2023-02-03T01:30:27.550Z,15.84
2023-02-03T01:30:37.129Z,15.85
2023-02-03T01:30:47.256Z,15.84
2023-02-03T01:30:57.194Z,15.84
2023-02-03T01:31:07.220Z,15.84
2023-02-03T01:31:17.204Z,15.84
2023-02-03T01:31:27.240Z,15.86
2023-02-03T01:31:37.383Z,15.84
2023-02-03T01:31:47.168Z,15.84
2023-02-03T01:31:57.250Z,15.84
2023-02-03T01:32:07.185Z,15.84
2023-02-03T01:32:17.112Z,15.84
2023-02-03T01:32:27.115Z,15.85
2023-02-03T01:32:37.116Z,15.85
2023-02-03T01:32:47.111Z,15.81
2023-02-03T01:32:57.118Z,15.85
2023-02-03T01:33:07.109Z,15.85
2023-02-03T01:33:17.112Z,15.85
2023-02-03T01:33:27.110Z,15.84
2023-02-03T01:33:37.148Z,15.85
2023-02-03T01:33:47.121Z,15.84
2023-02-03T01:33:57.110Z,15.84
2023-02-03T01:34:07.115Z,15.85
2023-02-03T01:34:17.141Z,15.85
2023-02-03T01:34:27.115Z,15.84
2023-02-03T01:34:37.115Z,15.84
2023-02-03T01:34:47.116Z,15.84
2023-02-03T01:34:57.126Z,15.85
2023-02-03T01:35:07.126Z,15.84
2023-02-03T01:35:17.124Z,15.85
2023-02-03T01:35:27.138Z,15.85
2023-02-03T01:35:37.131Z,15.85
2023-02-03T01:35:47.119Z,15.84
2023-02-03T01:35:57.122Z,15.84
2023-02-03T01:36:07.128Z,15.85
2023-02-03T01:36:17.135Z,15.84
2023-02-03T01:36:27.122Z,15.84
2023-02-03T01:36:37.123Z,15.84
2023-02-03T01:36:47.124Z,15.84
2023-02-03T01:36:57.126Z,15.84
2023-02-03T01:37:07.133Z,15.84
2023-02-03T01:37:17.128Z,15.84
2023-02-03T01:37:27.125Z,15.81
2023-02-03T01:37:37.133Z,15.81
2023-02-03T01:37:47.131Z,15.84
2023-02-03T01:37:57.128Z,15.81
2023-02-03T01:38:07.131Z,15.84
2023-02-03T01:38:17.134Z,15.81
2023-02-03T01:38:27.133Z,15.84
2023-02-03T01:38:37.129Z,15.84
2023-02-03T01:38:47.128Z,15.84
2023-02-03T01:38:57.136Z,15.84
2023-02-03T01:39:07.155Z,15.85
2023-02-03T01:39:17.139Z,15.85
2023-02-03T01:39:27.141Z,15.85
2023-02-03T01:39:37.148Z,15.84
2023-02-03T01:39:47.153Z,15.84
2023-02-03T01:39:57.142Z,15.84
2023-02-03T01:40:07.145Z,15.85
2023-02-03T01:40:17.149Z,15.84
2023-02-03T01:40:27.455Z,15.84
2023-02-03T01:40:37.144Z,15.84
2023-02-03T01:40:47.146Z,15.85
2023-02-03T01:40:57.142Z,15.84
2023-02-03T01:41:07.144Z,15.85
2023-02-03T01:41:17.145Z,15.84
2023-02-03T01:41:27.149Z,15.84
2023-02-03T01:41:37.161Z,15.84
2023-02-03T01:41:47.155Z,15.84
2023-02-03T01:41:57.155Z,15.84
2023-02-03T01:42:07.152Z,15.84
2023-02-03T01:42:17.154Z,15.85
2023-02-03T01:42:27.149Z,15.85
2023-02-03T01:42:37.165Z,15.86
2023-02-03T01:42:47.173Z,15.84
2023-02-03T01:42:57.155Z,15.85
2023-02-03T01:43:07.154Z,15.85
2023-02-03T01:43:17.154Z,15.86
2023-02-03T01:43:27.161Z,15.86
2023-02-03T01:43:37.165Z,15.86
2023-02-03T01:43:47.163Z,15.85
2023-02-03T01:43:57.161Z,15.85
2023-02-03T01:44:07.161Z,15.86
2023-02-03T01:44:17.163Z,15.86
2023-02-03T01:44:27.162Z,15.85
2023-02-03T01:44:37.174Z,15.85
2023-02-03T01:44:47.168Z,15.85
2023-02-03T01:44:57.164Z,15.85
2023-02-03T01:45:07.170Z,15.85
2023-02-03T01:45:17.164Z,15.85
2023-02-03T01:45:27.174Z,15.86
2023-02-03T01:45:37.163Z,15.85
2023-02-03T01:45:47.208Z,15.86
2023-02-03T01:45:57.170Z,15.86
2023-02-03T01:46:07.212Z,15.86
2023-02-03T01:46:17.229Z,15.85
2023-02-03T01:46:27.185Z,15.86
2023-02-03T01:46:37.172Z,15.86
2023-02-03T01:46:47.168Z,15.86
2023-02-03T01:46:57.169Z,15.86
2023-02-03T01:47:07.174Z,15.86
2023-02-03T01:47:17.173Z,15.85
2023-02-03T01:47:27.191Z,15.86
2023-02-03T01:47:37.190Z,15.86
2023-02-03T01:47:47.187Z,15.85
2023-02-03T01:47:57.179Z,15.86
2023-02-03T01:48:07.181Z,15.88
2023-02-03T01:48:17.174Z,15.88
2023-02-03T01:48:27.175Z,15.86
2023-02-03T01:48:37.181Z,15.85
2023-02-03T01:48:47.177Z,15.86
2023-02-03T01:48:57.182Z,15.86
2023-02-03T01:49:07.183Z,15.88
2023-02-03T01:49:17.178Z,15.86
2023-02-03T01:49:27.205Z,15.86
2023-02-03T01:49:37.180Z,15.86
2023-02-03T01:49:47.183Z,15.88
2023-02-03T01:49:57.182Z,15.88
2023-02-03T01:50:07.198Z,15.86
2023-02-03T01:50:17.189Z,15.86
2023-02-03T01:50:27.537Z,15.86
2023-02-03T01:50:37.192Z,15.86
2023-02-03T01:50:47.189Z,15.88
2023-02-03T01:50:57.185Z,15.86
2023-02-03T01:51:07.186Z,15.86
2023-02-03T01:51:17.186Z,15.86
2023-02-03T01:51:27.187Z,15.85
2023-02-03T01:51:37.188Z,15.86
2023-02-03T01:51:47.191Z,15.86
2023-02-03T01:51:57.192Z,15.86
2023-02-03T01:52:07.191Z,15.86
2023-02-03T01:52:17.197Z,15.85
2023-02-03T01:52:27.190Z,15.85
2023-02-03T01:52:37.433Z,15.86
2023-02-03T01:52:47.193Z,15.88
2023-02-03T01:52:57.203Z,15.86
2023-02-03T01:53:07.189Z,15.85
2023-02-03T01:53:17.198Z,15.86
2023-02-03T01:53:27.196Z,15.86
2023-02-03T01:53:37.194Z,15.85
2023-02-03T01:53:47.203Z,15.85
2023-02-03T01:53:57.205Z,15.86
2023-02-03T01:54:07.196Z,15.88
2023-02-03T01:54:17.201Z,15.86
2023-02-03T01:54:27.198Z,15.85
2023-02-03T01:54:37.209Z,15.86
2023-02-03T01:54:47.201Z,15.86
2023-02-03T01:54:57.201Z,15.86
2023-02-03T01:55:07.208Z,15.86
2023-02-03T01:55:17.207Z,15.85
2023-02-03T01:55:27.206Z,15.85
2023-02-03T01:55:37.214Z,15.86
2023-02-03T01:55:47.203Z,15.88
2023-02-03T01:55:57.203Z,15.86
2023-02-03T01:56:07.204Z,15.88
2023-02-03T01:56:17.222Z,15.85
2023-02-03T01:56:27.206Z,15.85
2023-02-03T01:56:37.210Z,15.86
2023-02-03T01:56:47.212Z,15.86
2023-02-03T01:56:57.209Z,15.86
2023-02-03T01:57:07.237Z,15.85
2023-02-03T01:57:17.213Z,15.86
2023-02-03T01:57:27.230Z,15.85
2023-02-03T01:57:37.209Z,15.86
2023-02-03T01:57:47.216Z,15.85
2023-02-03T01:57:57.210Z,15.86
2023-02-03T01:58:07.212Z,15.85
2023-02-03T01:58:17.232Z,15.85
2023-02-03T01:58:27.214Z,15.85
2023-02-03T01:58:37.219Z,15.86
2023-02-03T01:58:47.214Z,15.86
2023-02-03T01:58:57.215Z,15.86
2023-02-03T01:59:07.216Z,15.85
2023-02-03T01:59:17.233Z,15.86
2023-02-03T01:59:27.219Z,15.85
2023-02-03T01:59:37.223Z,15.88
2023-02-03T01:59:47.218Z,15.88
2023-02-03T01:59:57.223Z,15.88
2023-02-03T02:00:07.227Z,15.86
2023-02-03T02:00:17.234Z,15.88
2023-02-03T02:00:27.579Z,15.86
2023-02-03T02:00:37.234Z,15.88
2023-02-03T02:00:47.221Z,15.86
2023-02-03T02:00:57.240Z,15.88
2023-02-03T02:01:07.282Z,15.88
2023-02-03T02:01:19.529Z,15.88
2023-02-03T02:01:27.249Z,15.86
2023-02-03T02:01:37.432Z,15.88
2023-02-03T02:01:47.293Z,15.86
2023-02-03T02:01:57.231Z,15.86
2023-02-03T02:02:07.296Z,15.86
2023-02-03T02:02:17.327Z,15.86
2023-02-03T02:02:27.317Z,15.86
2023-02-03T02:02:37.268Z,15.86
2023-02-03T02:02:47.285Z,15.86
2023-02-03T02:02:57.289Z,15.86
2023-02-03T02:03:07.253Z,15.86
2023-02-03T02:03:17.235Z,15.86
2023-02-03T02:03:27.234Z,15.85
2023-02-03T02:03:37.237Z,15.86
2023-02-03T02:03:47.237Z,15.86
2023-02-03T02:03:57.241Z,15.85
2023-02-03T02:04:07.239Z,15.86
2023-02-03T02:04:17.236Z,15.85
2023-02-03T02:04:27.237Z,15.86
2023-02-03T02:04:37.259Z,15.86
2023-02-03T02:04:47.244Z,15.86
2023-02-03T02:04:57.243Z,15.86
2023-02-03T02:05:07.254Z,15.85
2023-02-03T02:05:17.244Z,15.86
2023-02-03T02:05:27.253Z,15.85
2023-02-03T02:05:37.245Z,15.86
2023-02-03T02:05:47.248Z,15.86
2023-02-03T02:05:57.246Z,15.86
2023-02-03T02:06:07.248Z,15.88
2023-02-03T02:06:17.251Z,15.85
2023-02-03T02:06:27.253Z,15.88
2023-02-03T02:06:37.250Z,15.85
2023-02-03T02:06:47.251Z,15.88
2023-02-03T02:06:57.256Z,15.88
2023-02-03T02:07:07.254Z,15.88
2023-02-03T02:07:17.254Z,15.86
2023-02-03T02:07:27.254Z,15.86
2023-02-03T02:07:37.256Z,15.86
2023-02-03T02:07:47.262Z,15.86
2023-02-03T02:07:57.246Z,15.86
2023-02-03T02:08:07.264Z,15.86
2023-02-03T02:08:17.261Z,15.86
2023-02-03T02:08:27.258Z,15.86
2023-02-03T02:08:37.259Z,15.88
2023-02-03T02:08:47.259Z,15.88